Time;durP1;ratioP1;P1;durP2;ratioP2;P2;SDS_P1;SDS_P2;PMS_P1;PMS_P2;Temp;Humidity;BMP_temperature;BMP_pressure;BME280_temperature;BME280_humidity;BME280_pressure;Samples;Min_cycle;Max_cycle;Signal;HPM_P1;HPM_P2
2022/09/13 00:00:36;;;;;;;3.22;1.38;;;;;;;19.78;100.00;94454.72;4961418;28;20134;-93
2022/09/13 00:03:02;;;;;;;5.95;1.77;;;;;;;19.57;100.00;94452.06;4961189;28;20034;-94
2022/09/13 00:05:28;;;;;;;5.75;1.63;;;;;;;19.38;100.00;94453.25;4978600;28;20436;-92
2022/09/13 00:07:53;;;;;;;4.93;1.50;;;;;;;19.40;100.00;94445.00;4960982;28;20027;-92
2022/09/13 00:10:19;;;;;;;8.85;1.75;;;;;;;19.42;100.00;94440.13;4977098;28;20038;-94
2022/09/13 00:12:44;;;;;;;8.40;1.80;;;;;;;19.53;100.00;94443.19;4961296;28;20443;-92
2022/09/13 00:15:10;;;;;;;5.30;1.52;;;;;;;19.64;100.00;94442.47;4976914;28;20037;-92
2022/09/13 00:17:36;;;;;;;6.28;1.60;;;;;;;19.61;100.00;94440.47;4978022;28;20083;-93
2022/09/13 00:20:02;;;;;;;4.60;1.67;;;;;;;19.37;100.00;94441.09;4977216;28;20034;-93
2022/09/13 00:22:28;;;;;;;4.55;1.90;;;;;;;19.62;100.00;94439.38;4944994;28;20027;-93
2022/09/13 00:24:53;;;;;;;4.93;1.58;;;;;;;19.53;100.00;94437.88;4977232;28;20075;-92
2022/09/13 00:27:19;;;;;;;4.47;1.58;;;;;;;19.53;100.00;94437.88;4961251;28;20090;-93
2022/09/13 00:29:45;;;;;;;3.38;1.60;;;;;;;19.54;100.00;94436.75;4944994;28;20022;-92
2022/09/13 00:32:10;;;;;;;9.88;1.95;;;;;;;19.41;100.00;94426.06;4945405;28;20023;-93
2022/09/13 00:34:36;;;;;;;9.52;2.00;;;;;;;19.22;100.00;94423.81;4976852;28;20023;-92
2022/09/13 00:37:01;;;;;;;4.10;1.85;;;;;;;19.32;100.00;94439.38;4960608;28;20023;-94
2022/09/13 00:39:27;;;;;;;5.35;1.50;;;;;;;18.89;100.00;94437.69;4944733;28;20031;-93
2022/09/13 00:41:52;;;;;;;3.20;1.67;;;;;;;18.99;100.00;94436.53;4976942;28;20034;-92
2022/09/13 00:44:49;;;;;;;3.70;1.50;;;;;;;19.12;100.00;94430.28;4960950;28;20026;-93
2022/09/13 00:47:28;;;;;;;7.32;1.48;;;;;;;19.24;100.00;94432.25;4976775;28;20349;-92
2022/09/13 00:49:58;;;;;;;5.20;1.95;;;;;;;18.99;100.00;94425.94;4976867;28;20030;-92
2022/09/13 00:52:25;;;;;;;5.15;1.80;;;;;;;18.67;100.00;94430.72;4976968;28;20023;-93
2022/09/13 00:54:57;;;;;;;5.43;2.10;;;;;;;18.77;100.00;94431.16;4960506;28;20026;-92
2022/09/13 00:57:23;;;;;;;5.45;1.95;;;;;;;18.94;100.00;94429.56;4961021;28;20071;-92
2022/09/13 00:59:54;;;;;;;3.10;1.70;;;;;;;18.93;100.00;94427.97;4977124;28;20348;-92
2022/09/13 01:02:22;;;;;;;12.15;1.80;;;;;;;18.97;100.00;94433.44;4960360;28;20450;-93
2022/09/13 01:04:48;;;;;;;5.82;1.90;;;;;;;19.03;100.00;94426.91;4960818;28;20034;-92
2022/09/13 01:07:14;;;;;;;4.82;1.83;;;;;;;18.68;100.00;94419.81;4977515;28;20023;-92
2022/09/13 01:09:43;;;;;;;5.45;1.88;;;;;;;18.58;100.00;94426.25;4944535;28;20048;-92
2022/09/13 01:12:24;;;;;;;5.20;2.05;;;;;;;18.77;100.00;94425.09;4976419;28;20022;-92
2022/09/13 01:14:51;;;;;;;6.80;1.60;;;;;;;19.04;100.00;94429.22;4960536;28;20027;-92
2022/09/13 01:17:17;;;;;;;3.42;1.60;;;;;;;19.33;100.00;94424.25;4960330;28;20444;-94
2022/09/13 01:19:42;;;;;;;4.97;1.90;;;;;;;19.54;100.00;94418.97;4960598;28;20034;-91
2022/09/13 01:22:27;;;;;;;6.20;1.92;;;;;;;19.57;100.00;94412.19;4976267;28;20053;-92
2022/09/13 01:25:07;;;;;;;9.30;1.70;;;;;;;19.61;100.00;94415.78;4960259;28;20355;-93
2022/09/13 01:27:41;;;;;;;7.30;1.52;;;;;;;19.62;100.00;94412.03;4976869;28;20038;-93
2022/09/13 01:30:11;;;;;;;10.35;2.00;;;;;;;19.52;100.00;94407.88;4977401;28;20070;-91
2022/09/13 01:32:52;;;;;;;7.07;1.70;;;;;;;19.60;100.00;94415.00;4959736;28;20027;-92
2022/09/13 01:35:33;;;;;;;5.93;1.60;;;;;;;19.47;100.00;94403.53;4976987;28;20031;-92
2022/09/13 01:38:28;;;;;;;5.28;1.85;;;;;;;19.36;100.00;94405.00;4940836;29;20043;-90
2022/09/13 01:41:02;;;;;;;6.13;2.13;;;;;;;19.12;100.00;94405.59;4955351;28;20062;-91
2022/09/13 01:43:46;;;;;;;;;;;;;;;19.28;100.00;94403.94;4944262;28;20396;-91
2022/09/13 01:46:18;;;;;;;3.35;1.58;;;;;;;19.14;100.00;94398.84;4979792;28;20312;-91
2022/09/13 01:48:53;;;;;;;4.57;1.33;;;;;;;19.19;100.00;94390.72;4963400;28;20344;-91
2022/09/13 01:51:34;;;;;;;12.55;2.10;;;;;;;19.24;100.00;94397.72;4980671;28;20329;-92
2022/09/13 01:54:02;;;;;;;3.70;1.13;;;;;;;19.15;100.00;94389.03;4944295;29;20086;-91
2022/09/13 01:56:35;;;;;;;6.15;1.80;;;;;;;19.07;100.00;94406.56;4978285;28;20081;-92
2022/09/13 01:59:06;;;;;;;4.60;1.50;;;;;;;19.29;100.00;94392.22;4980540;28;20030;-92
2022/09/13 02:01:32;;;;;;;7.53;1.60;;;;;;;19.20;100.00;94397.59;4963280;28;20026;-91
2022/09/13 02:04:12;;;;;;;5.35;1.63;;;;;;;19.34;100.00;94400.00;4963341;28;20078;-90
2022/09/13 02:06:44;;;;;;;3.63;1.65;;;;;;;19.42;100.00;94389.66;4963307;28;20069;-93
2022/09/13 02:09:18;;;;;;;7.43;1.88;;;;;;;19.31;100.00;94397.22;4963314;28;20034;-92
2022/09/13 02:11:47;;;;;;;4.57;1.40;;;;;;;19.15;100.00;94394.34;4963373;28;20532;-93
2022/09/13 02:14:15;;;;;;;4.85;1.38;;;;;;;19.17;100.00;94390.28;4962976;28;20023;-93
2022/09/13 02:16:46;;;;;;;7.25;1.90;;;;;;;19.20;100.00;94388.84;4963545;28;20336;-93
2022/09/13 02:19:22;;;;;;;5.10;1.40;;;;;;;19.01;100.00;94382.06;4962878;28;20035;-93
2022/09/13 02:21:51;;;;;;;4.03;1.25;;;;;;;19.40;100.00;94386.53;4946956;28;20037;-91
2022/09/13 02:24:25;;;;;;;7.32;1.60;;;;;;;19.50;100.00;94383.47;4962565;28;20094;-94
2022/09/13 02:26:52;;;;;;;5.10;1.25;;;;;;;19.51;100.00;94393.03;4962710;28;20034;-92
2022/09/13 02:29:22;;;;;;;2.47;1.42;;;;;;;19.44;100.00;94387.44;4946850;28;20035;-93
2022/09/13 02:31:55;;;;;;;6.35;1.75;;;;;;;19.53;100.00;94379.41;4979074;28;20123;-93
2022/09/13 02:34:30;;;;;;;3.80;1.30;;;;;;;19.33;100.00;94384.41;4963349;28;20063;-93
2022/09/13 02:36:56;;;;;;;10.55;1.58;;;;;;;19.30;100.00;94375.19;4978621;28;20068;-93
2022/09/13 02:39:24;;;;;;;3.55;1.40;;;;;;;19.40;100.00;94384.66;4962335;28;20038;-93
2022/09/13 02:42:11;;;;;;;5.35;1.50;;;;;;;19.49;100.00;94381.94;4962448;28;20039;-93
2022/09/13 02:44:41;;;;;;;3.97;1.63;;;;;;;19.36;100.00;94373.88;4947052;28;20070;-93
2022/09/13 02:47:25;;;;;;;7.35;1.80;;;;;;;19.31;100.00;94382.06;4962430;28;20061;-93
2022/09/13 02:49:56;;;;;;;4.13;1.40;;;;;;;19.20;100.00;94384.31;4980215;28;20042;-93
2022/09/13 02:52:38;;;;;;;2.47;1.38;;;;;;;19.06;100.00;94379.22;4962640;28;20037;-92
2022/09/13 02:55:13;;;;;;;3.65;1.38;;;;;;;19.15;100.00;94381.84;4979454;28;20030;-94
2022/09/13 02:58:01;;;;;;;4.25;1.55;;;;;;;19.05;100.00;94387.53;4961294;28;20031;-92
2022/09/13 03:00:27;;;;;;;4.90;1.33;;;;;;;18.67;100.00;94380.31;4979419;28;20035;-92
2022/09/13 03:02:54;;;;;;;5.95;1.20;;;;;;;18.90;100.00;94373.66;4962505;28;20105;-93
2022/09/13 03:05:20;;;;;;;2.75;1.50;;;;;;;18.77;100.00;94377.31;4962336;28;20125;-92
2022/09/13 03:07:46;;;;;;;4.65;1.60;;;;;;;18.89;100.00;94380.06;4961984;28;20041;-92
2022/09/13 03:10:12;;;;;;;4.85;1.80;;;;;;;18.64;100.00;94381.72;4979731;28;20077;-92
2022/09/13 03:12:50;;;;;;;4.60;1.27;;;;;;;18.83;100.00;94386.66;4961713;28;20117;-93
2022/09/13 03:15:36;;;;;;;5.80;1.63;;;;;;;18.72;100.00;94380.91;4979126;28;20053;-93
2022/09/13 03:18:20;;;;;;;4.45;1.50;;;;;;;18.84;100.00;94371.50;4979500;28;20066;-92
2022/09/13 03:21:08;;;;;;;6.13;1.85;;;;;;;18.77;100.00;94383.38;4962095;28;20089;-92
2022/09/13 03:23:42;;;;;;;2.70;1.27;;;;;;;18.84;100.00;94366.19;4978925;28;20042;-91
2022/09/13 03:26:21;;;;;;;3.22;1.20;;;;;;;18.90;100.00;94375.53;4978813;28;20038;-91
2022/09/13 03:29:10;;;;;;;2.63;1.30;;;;;;;19.04;100.00;94373.44;4978629;28;20121;-91
2022/09/13 03:31:38;;;;;;;2.75;1.30;;;;;;;18.89;100.00;94368.66;4961574;28;20035;-92
2022/09/13 03:34:30;;;;;;;6.20;1.60;;;;;;;18.90;100.00;94368.34;4978659;28;20034;-91
2022/09/13 03:37:09;;;;;;;3.03;1.50;;;;;;;18.84;100.00;94361.66;4971670;28;20038;-91
2022/09/13 03:39:48;;;;;;;3.95;1.27;;;;;;;18.84;100.00;94358.25;4961366;28;20023;-91
2022/09/13 03:42:20;;;;;;;3.70;1.40;;;;;;;18.86;100.00;94358.69;4961264;28;20070;-92
2022/09/13 03:44:47;;;;;;;3.92;1.45;;;;;;;18.82;100.00;94361.19;4961659;28;20129;-91
2022/09/13 03:47:13;;;;;;;4.50;1.50;;;;;;;18.88;100.00;94362.59;4961163;28;20022;-91
2022/09/13 03:49:38;;;;;;;4.60;1.30;;;;;;;18.90;100.00;94367.56;4961163;28;20026;-92
2022/09/13 03:52:04;;;;;;;1.48;1.10;;;;;;;18.88;100.00;94367.13;4961515;28;20027;-91
2022/09/13 03:54:31;;;;;;;2.53;1.23;;;;;;;18.84;100.00;94363.56;4961474;28;20023;-91
2022/09/13 03:57:07;;;;;;;3.97;1.30;;;;;;;18.74;100.00;94370.00;4960845;28;20516;-92
2022/09/13 03:59:35;;;;;;;5.32;1.80;;;;;;;18.67;100.00;94361.75;4980387;28;20113;-90
2022/09/13 04:02:01;;;;;;;3.60;1.42;;;;;;;18.81;100.00;94364.19;4997628;28;20026;-92
2022/09/13 04:04:27;;;;;;;1.50;1.17;;;;;;;18.83;100.00;94362.00;4996663;28;20026;-92
2022/09/13 04:06:55;;;;;;;5.68;1.25;;;;;;;18.75;100.00;94353.75;4980420;28;20329;-91
2022/09/13 04:09:23;;;;;;;6.90;1.77;;;;;;;18.63;100.00;94358.94;4980380;28;20041;-92
2022/09/13 04:11:49;;;;;;;2.22;1.42;;;;;;;18.67;100.00;94353.78;4964312;28;20061;-92
2022/09/13 04:14:15;;;;;;;2.55;1.08;;;;;;;18.62;100.00;94354.72;4979500;28;20069;-92
2022/09/13 04:16:41;;;;;;;9.27;2.17;;;;;;;18.48;100.00;94347.75;4979956;28;20344;-92
2022/09/13 04:19:06;;;;;;;4.03;1.58;;;;;;;18.46;100.00;94357.16;4963813;28;20035;-91
2022/09/13 04:21:32;;;;;;;2.42;1.35;;;;;;;18.44;100.00;94354.81;4980571;28;20073;-91
2022/09/13 04:23:58;;;;;;;4.43;1.30;;;;;;;18.39;100.00;94357.63;4997362;28;20026;-91
2022/09/13 04:26:23;;;;;;;3.13;1.33;;;;;;;18.30;100.00;94362.19;4979895;28;20022;-91
2022/09/13 04:28:52;;;;;;;3.42;1.50;;;;;;;18.19;100.00;94354.56;4979649;28;20022;-90
2022/09/13 04:31:17;;;;;;;3.38;1.70;;;;;;;18.01;100.00;94364.41;4997489;28;20026;-92
2022/09/13 04:33:44;;;;;;;6.53;1.33;;;;;;;18.17;100.00;94369.25;4979741;28;20022;-92
2022/09/13 04:36:09;;;;;;;6.68;1.63;;;;;;;18.27;100.00;94371.53;4997266;28;20022;-92
2022/09/13 04:38:36;;;;;;;5.15;1.60;;;;;;;18.05;100.00;94364.56;4979846;28;20124;-92
2022/09/13 04:41:01;;;;;;;2.45;1.35;;;;;;;18.35;100.00;94369.94;4980104;28;20022;-92
2022/09/13 04:43:26;;;;;;;4.72;1.35;;;;;;;18.38;100.00;94369.34;4963865;28;20126;-91
2022/09/13 04:45:52;;;;;;;2.67;1.33;;;;;;;18.43;100.00;94371.81;4979977;28;20129;-92
2022/09/13 04:48:18;;;;;;;4.30;1.67;;;;;;;18.37;100.00;94376.50;4997138;28;20022;-91
2022/09/13 04:50:44;;;;;;;10.88;1.90;;;;;;;18.37;100.00;94376.50;4979716;28;20116;-91
2022/09/13 04:53:10;;;;;;;1.88;1.10;;;;;;;18.50;100.00;94376.63;4997597;28;20022;-92
2022/09/13 04:55:36;;;;;;;5.57;1.40;;;;;;;18.40;100.00;94374.31;4995746;28;20032;-91
2022/09/13 04:58:03;;;;;;;4.15;1.67;;;;;;;18.55;100.00;94370.38;4979763;28;20030;-90
2022/09/13 05:00:30;;;;;;;3.92;1.40;;;;;;;18.61;100.00;94374.41;4996885;28;20423;-92
2022/09/13 05:02:56;;;;;;;3.78;1.63;;;;;;;18.59;100.00;94374.75;4997036;28;20028;-91
2022/09/13 05:05:24;;;;;;;2.92;1.50;;;;;;;18.60;100.00;94370.19;4979792;28;20022;-92
2022/09/13 05:07:50;;;;;;;2.72;1.60;;;;;;;18.56;100.00;94374.59;4996910;28;20022;-92
2022/09/13 05:10:16;;;;;;;5.10;1.23;;;;;;;18.30;100.00;94372.78;4979474;28;20510;-91
2022/09/13 05:12:41;;;;;;;5.47;1.50;;;;;;;18.47;100.00;94367.41;4979648;28;20166;-91
2022/09/13 05:15:11;;;;;;;3.70;1.50;;;;;;;18.61;100.00;94363.78;4979192;28;20470;-90
2022/09/13 05:17:37;;;;;;;6.65;1.25;;;;;;;18.69;100.00;94370.16;4996747;28;20390;-90
2022/09/13 05:20:04;;;;;;;3.47;1.50;;;;;;;18.61;100.00;94361.13;4980604;28;20078;-90
2022/09/13 05:22:29;;;;;;;10.30;1.63;;;;;;;18.70;100.00;94366.41;4983331;28;20026;-90
2022/09/13 05:24:55;;;;;;;4.60;1.50;;;;;;;18.63;100.00;94361.59;4983144;28;20026;-90
2022/09/13 05:27:21;;;;;;;3.35;1.52;;;;;;;18.87;100.00;94360.25;5000379;28;20018;-91
2022/09/13 05:29:46;;;;;;;3.20;1.50;;;;;;;18.98;100.00;94356.13;4982973;28;20084;-92
2022/09/13 05:32:12;;;;;;;6.25;1.40;;;;;;;18.94;100.00;94360.53;4983108;28;20507;-91
2022/09/13 05:34:37;;;;;;;2.22;1.13;;;;;;;18.89;100.00;94361.50;4982993;28;20026;-91
2022/09/13 05:37:03;;;;;;;3.58;1.27;;;;;;;18.99;100.00;94365.69;4982852;28;20023;-91
2022/09/13 05:39:28;;;;;;;3.58;1.40;;;;;;;19.13;100.00;94370.75;5000272;28;20022;-92
2022/09/13 05:41:55;;;;;;;4.65;1.55;;;;;;;19.39;100.00;94361.09;4966518;28;20034;-92
2022/09/13 05:44:20;;;;;;;4.32;1.58;;;;;;;19.53;100.00;94356.28;5000183;28;20491;-89
2022/09/13 05:46:47;;;;;;;3.45;1.67;;;;;;;19.72;100.00;94360.34;4966749;28;20064;-90
2022/09/13 05:49:13;;;;;;;5.25;1.48;;;;;;;19.47;100.00;94366.34;4982749;28;20026;-91
2022/09/13 05:51:38;;;;;;;6.00;1.10;;;;;;;19.75;100.00;94363.16;4982824;28;20439;-90
2022/09/13 05:54:04;;;;;;;4.85;1.40;;;;;;;19.88;100.00;94360.53;4967448;28;20023;-90
2022/09/13 05:56:31;;;;;;;4.78;1.42;;;;;;;20.04;100.00;94361.50;4946936;28;20035;-91
2022/09/13 05:58:57;;;;;;;3.70;1.67;;;;;;;20.13;100.00;94374.72;4963635;28;20030;-91
2022/09/13 06:01:26;;;;;;;3.55;1.20;;;;;;;20.25;100.00;94373.22;4963187;28;20033;-90
2022/09/13 06:03:58;;;;;;;6.43;1.30;;;;;;;20.26;100.00;94372.09;4980320;28;20073;-90
2022/09/13 06:06:24;;;;;;;3.60;1.65;;;;;;;20.20;100.00;94366.22;4963046;28;20458;-91
2022/09/13 06:08:55;;;;;;;3.10;1.13;;;;;;;20.05;100.00;94371.03;4963173;28;20101;-90
2022/09/13 06:11:21;;;;;;;2.63;1.15;;;;;;;20.45;100.00;94366.28;4963108;28;20027;-92
2022/09/13 06:13:46;;;;;;;3.03;1.20;;;;;;;20.67;100.00;94372.28;4962907;28;20029;-91
2022/09/13 06:16:13;;;;;;;3.38;1.38;;;;;;;20.73;100.00;94374.38;4962720;28;20436;-91
2022/09/13 06:18:39;;;;;;;2.95;1.20;;;;;;;20.71;100.00;94375.81;4979920;28;20126;-90
2022/09/13 06:21:16;;;;;;;3.10;1.33;;;;;;;20.79;100.00;94377.63;4963145;28;20404;-92
2022/09/13 06:23:43;;;;;;;6.22;1.50;;;;;;;20.91;100.00;94384.84;4980193;28;20031;-91
2022/09/13 06:26:11;;;;;;;2.67;1.10;;;;;;;21.01;100.00;94381.75;4947029;28;20030;-91
2022/09/13 06:28:39;;;;;;;5.57;1.60;;;;;;;21.08;100.00;94372.41;4946753;28;20042;-92
2022/09/13 06:31:13;;;;;;;3.85;1.30;;;;;;;21.12;100.00;94375.97;4962706;28;20027;-91
2022/09/13 06:33:41;;;;;;;7.65;1.38;;;;;;;21.18;100.00;94370.09;4962971;28;20381;-91
2022/09/13 06:36:10;;;;;;;7.03;1.45;;;;;;;21.22;100.00;94370.19;4947288;28;20081;-92
2022/09/13 06:38:38;;;;;;;2.70;1.40;;;;;;;21.27;100.00;94372.63;4979752;28;20095;-92
2022/09/13 06:41:09;;;;;;;5.13;1.30;;;;;;;20.99;100.00;94375.19;4962096;28;20053;-92
2022/09/13 06:43:35;;;;;;;4.32;1.42;;;;;;;21.31;100.00;94376.16;4962607;28;20053;-92
2022/09/13 06:46:20;;;;;;;4.88;1.35;;;;;;;21.24;100.00;94372.53;4946380;28;20117;-93
2022/09/13 06:48:47;;;;;;;4.63;1.40;;;;;;;21.19;100.00;94373.53;4979581;28;20026;-92
2022/09/13 06:51:18;;;;;;;5.82;1.50;;;;;;;21.33;100.00;94362.53;4979258;28;20070;-91
2022/09/13 06:53:45;;;;;;;3.72;1.70;;;;;;;21.50;100.00;94366.03;4976088;28;20035;-91
2022/09/13 06:56:29;;;;;;;4.40;1.50;;;;;;;21.49;100.00;94361.81;4962754;28;20127;-91
2022/09/13 06:59:00;;;;;;;2.90;1.40;;;;;;;21.71;100.00;94366.66;4962128;28;20033;-91
2022/09/13 07:01:29;;;;;;;6.93;1.40;;;;;;;21.78;100.00;94370.66;4979243;28;20038;-91
2022/09/13 07:04:01;;;;;;;3.17;1.17;;;;;;;21.75;100.00;94372.09;4979253;28;20026;-91
2022/09/13 07:06:29;;;;;;;3.67;1.20;;;;;;;21.78;100.00;94360.75;4962273;28;20046;-91
2022/09/13 07:08:56;;;;;;;2.65;1.30;;;;;;;21.68;100.00;94371.91;4961896;28;20022;-91
2022/09/13 07:11:24;;;;;;;3.20;1.70;;;;;;;21.98;100.00;94368.91;4945968;28;20030;-89
2022/09/13 07:13:57;;;;;;;6.70;1.42;;;;;;;22.06;100.00;94375.22;4946337;28;20026;-90
2022/09/13 07:16:25;;;;;;;4.53;1.30;;;;;;;22.07;100.00;94366.09;4979382;28;20031;-90
2022/09/13 07:18:59;;;;;;;5.93;1.90;;;;;;;22.21;100.00;94365.69;4961777;28;20035;-91
2022/09/13 07:21:24;;;;;;;;;;;;;;;22.18;100.00;94367.16;4961912;28;20030;-89
2022/09/13 07:23:52;;;;;;;5.60;1.65;;;;;;;22.22;100.00;94361.91;4961994;28;19992;-89
2022/09/13 07:26:18;;;;;;;3.03;1.30;;;;;;;22.25;100.00;94366.56;4945684;28;20130;-90
2022/09/13 07:28:45;;;;;;;3.83;1.63;;;;;;;22.43;100.00;94367.78;4945277;28;20137;-90
2022/09/13 07:31:25;;;;;;;4.25;1.60;;;;;;;22.43;100.00;94359.78;4961687;28;20118;-92
2022/09/13 07:33:55;;;;;;;4.38;1.60;;;;;;;22.58;100.00;94363.59;4961901;28;20343;-91
2022/09/13 07:36:21;;;;;;;6.03;1.77;;;;;;;22.56;100.00;94365.84;4945989;28;20029;-89
2022/09/13 07:38:47;;;;;;;5.30;1.58;;;;;;;22.65;100.00;94370.25;4961471;28;20083;-90
2022/09/13 07:41:15;;;;;;;2.45;1.40;;;;;;;22.76;100.00;94367.81;4961453;28;20105;-90
2022/09/13 07:43:41;;;;;;;2.42;1.13;;;;;;;22.83;100.00;94370.69;4961128;28;20023;-89
2022/09/13 07:46:10;;;;;;;3.90;1.45;;;;;;;22.86;100.00;94365.41;4961811;28;20034;-90
2022/09/13 07:48:39;;;;;;;3.78;1.40;;;;;;;22.98;100.00;94369.88;4945386;28;20019;-91
2022/09/13 07:51:10;;;;;;;2.83;1.20;;;;;;;23.06;97.93;94375.38;4961689;28;20038;-89
2022/09/13 07:53:38;;;;;;;4.78;1.50;;;;;;;23.18;94.84;94383.28;4978423;28;20097;-91
2022/09/13 07:56:20;;;;;;;5.47;1.83;;;;;;;23.22;97.22;94381.47;4945546;28;20026;-92
2022/09/13 07:58:49;;;;;;;4.88;1.30;;;;;;;23.47;100.00;94383.94;4960653;28;20117;-92
2022/09/13 08:01:15;;;;;;;6.82;1.50;;;;;;;23.29;100.00;94373.66;4961314;28;20023;-93
2022/09/13 08:03:40;;;;;;;10.38;1.77;;;;;;;23.40;100.00;94371.22;4945216;28;20401;-93
2022/09/13 08:06:09;;;;;;;9.40;1.92;;;;;;;23.19;100.00;94373.41;4961029;28;20130;-91
2022/09/13 08:08:45;;;;;;;3.42;1.23;;;;;;;23.69;100.00;94371.03;4945596;28;20046;-92
2022/09/13 08:11:15;;;;;;;3.83;1.40;;;;;;;23.85;100.00;94373.63;4946360;28;20027;-91
2022/09/13 08:13:43;;;;;;;2.67;1.35;;;;;;;23.98;98.94;94374.28;4961071;28;20031;-92
2022/09/13 08:16:39;;;;;;;8.43;1.35;;;;;;;23.97;100.00;94370.06;4944844;28;20433;-91
2022/09/13 08:19:06;;;;;;;5.65;1.13;;;;;;;24.02;100.00;94372.44;4956761;28;20043;-92
2022/09/13 08:21:39;;;;;;;3.72;1.23;;;;;;;24.13;100.00;94361.97;4960903;28;20034;-92
2022/09/13 08:24:07;;;;;;;5.03;1.20;;;;;;;24.37;100.00;94368.13;4961565;28;20023;-91
2022/09/13 08:26:34;;;;;;;4.65;1.30;;;;;;;24.29;86.42;94376.00;4960952;28;20027;-93
2022/09/13 08:29:04;;;;;;;2.47;1.13;;;;;;;24.03;80.38;94382.03;4945184;28;20018;-93
2022/09/13 08:31:32;;;;;;;3.80;1.23;;;;;;;24.21;74.29;94381.59;4977816;28;20137;-94
2022/09/13 08:33:58;;;;;;;5.75;1.70;;;;;;;24.42;78.01;94382.00;4944940;28;20041;-92
2022/09/13 08:36:27;;;;;;;5.85;1.35;;;;;;;24.50;90.37;94376.75;4977857;28;20348;-93
2022/09/13 08:39:24;;;;;;;4.93;1.63;;;;;;;24.50;95.11;94387.47;4977567;28;20326;-92
2022/09/13 08:42:12;;;;;;;2.47;1.10;;;;;;;24.74;85.01;94388.25;4977248;28;20400;-92
2022/09/13 08:44:44;;;;;;;6.07;1.40;;;;;;;24.71;83.68;94392.41;4960854;28;20033;-92
2022/09/13 08:47:10;;;;;;;3.33;1.33;;;;;;;24.96;81.93;94395.53;4960540;28;20081;-92
2022/09/13 08:49:45;;;;;;;4.47;1.52;;;;;;;24.84;92.65;94390.38;4977939;28;20428;-93
2022/09/13 08:52:24;;;;;;;5.93;1.52;;;;;;;25.06;88.45;94383.44;4977746;28;20095;-92
2022/09/13 08:54:50;;;;;;;3.28;1.30;;;;;;;24.88;100.00;94385.81;4961194;28;20081;-93
2022/09/13 08:57:21;;;;;;;7.00;1.50;;;;;;;25.22;99.46;94385.94;4963579;28;20029;-92
2022/09/13 09:00:01;;;;;;;5.97;1.58;;;;;;;25.08;78.00;94385.72;4981536;28;20072;-93
2022/09/13 09:03:00;;;;;;;2.75;1.40;;;;;;;25.31;81.64;94390.28;4964459;28;20033;-92
2022/09/13 09:05:28;;;;;;;8.75;1.50;;;;;;;25.49;77.70;94394.00;4981529;28;20074;-93
2022/09/13 09:08:02;;;;;;;3.97;1.55;;;;;;;25.53;74.20;94400.19;4964390;28;20447;-93
2022/09/13 09:10:31;;;;;;;5.50;1.42;;;;;;;25.32;81.26;94402.56;4948267;28;20042;-92
2022/09/13 09:13:23;;;;;;;3.83;1.40;;;;;;;25.31;79.56;94401.78;4981243;28;20388;-92
2022/09/13 09:15:52;;;;;;;3.35;1.40;;;;;;;25.39;83.41;94405.31;4970391;28;20065;-92
2022/09/13 09:18:20;;;;;;;8.18;1.95;;;;;;;25.51;82.64;94405.16;4964012;28;20035;-94
2022/09/13 09:20:52;;;;;;;3.58;1.77;;;;;;;25.47;87.26;94404.31;4963786;28;20093;-91
2022/09/13 09:23:34;;;;;;;4.25;1.40;;;;;;;25.51;88.08;94399.78;4964011;28;20034;-92
2022/09/13 09:26:24;;;;;;;6.47;1.52;;;;;;;25.71;73.06;94401.56;4981938;28;20027;-92
2022/09/13 09:28:54;;;;;;;3.72;1.38;;;;;;;25.72;76.65;94409.25;4964262;28;20029;-92
2022/09/13 09:31:37;;;;;;;3.88;1.60;;;;;;;25.61;79.11;94406.44;4963633;28;20038;-91
2022/09/13 09:34:18;;;;;;;4.90;1.50;;;;;;;25.83;76.87;94391.41;4964442;28;20421;-92
2022/09/13 09:36:48;;;;;;;6.40;1.70;;;;;;;25.86;76.83;94389.88;4981230;28;20460;-92
2022/09/13 09:39:15;;;;;;;3.40;1.63;;;;;;;25.78;76.07;94394.38;4963849;28;20027;-92
2022/09/13 09:41:42;;;;;;;3.35;1.48;;;;;;;25.85;72.84;94395.63;4979605;28;20428;-92
2022/09/13 09:44:11;;;;;;;7.10;1.52;;;;;;;25.60;83.19;94401.44;4980643;28;20074;-90
2022/09/13 09:46:40;;;;;;;3.22;1.40;;;;;;;26.13;81.23;94399.78;4980906;28;20046;-92
2022/09/13 09:52:17;;;;;;;7.00;1.80;;;;;;;26.37;82.26;94395.84;4964720;28;20085;-92
2022/09/13 09:54:45;;;;;;;3.28;1.20;;;;;;;26.54;73.22;94397.91;4963451;28;20022;-91
2022/09/13 09:57:19;;;;;;;2.85;1.17;;;;;;;26.79;71.78;94396.59;4979447;28;20142;-93
2022/09/13 09:59:44;;;;;;;4.95;1.40;;;;;;;26.56;68.37;94399.47;4963336;28;20035;-92
2022/09/13 10:02:18;;;;;;;4.03;1.50;;;;;;;26.90;67.56;94394.00;4980467;28;20429;-92
2022/09/13 10:05:05;;;;;;;8.07;1.33;;;;;;;26.83;66.21;94397.41;4963314;28;20027;-93
2022/09/13 10:07:34;;;;;;;6.20;1.40;;;;;;;26.98;70.77;94405.63;4948915;28;20429;-92
2022/09/13 10:10:21;;;;;;;4.40;1.30;;;;;;;26.98;67.14;94403.69;4947308;28;20034;-92
2022/09/13 10:12:53;;;;;;;6.00;1.27;;;;;;;26.99;71.25;94402.53;4962325;28;20050;-91
2022/09/13 10:15:20;;;;;;;5.38;1.38;;;;;;;27.24;71.48;94410.78;4947369;28;20428;-91
2022/09/13 10:18:08;;;;;;;4.13;1.23;;;;;;;26.75;70.44;94407.31;4962844;28;20087;-92
2022/09/13 10:20:37;;;;;;;5.05;1.52;;;;;;;26.46;67.67;94400.91;4980308;28;20038;-92
2022/09/13 10:23:17;;;;;;;3.10;1.40;;;;;;;26.88;63.68;94399.00;4980073;28;20369;-90
2022/09/13 10:25:46;;;;;;;5.85;1.50;;;;;;;26.78;64.98;94387.00;4979958;28;20045;-93
2022/09/13 10:28:17;;;;;;;4.07;1.50;;;;;;;27.28;64.97;94381.25;4962785;28;20034;-91
2022/09/13 10:30:51;;;;;;;4.75;1.33;;;;;;;26.98;67.25;94378.75;4946358;28;20041;-92
2022/09/13 10:33:24;;;;;;;11.23;1.48;;;;;;;27.12;76.16;94380.75;4946633;28;20022;-89
2022/09/13 10:35:52;;;;;;;;;;;;;;;26.98;65.79;94381.44;4963235;28;20030;-90
2022/09/13 10:38:29;;;;;;;4.75;1.40;;;;;;;27.11;68.92;94377.28;4979839;28;19918;-89
2022/09/13 10:40:57;;;;;;;3.53;1.38;;;;;;;27.35;63.68;94373.22;4961547;28;20026;-92
2022/09/13 10:43:23;;;;;;;4.05;1.20;;;;;;;27.49;63.35;94372.53;4962939;28;20027;-92
2022/09/13 10:45:50;;;;;;;4.15;1.35;;;;;;;27.10;62.16;94367.66;4962208;28;20356;-92
2022/09/13 10:48:17;;;;;;;7.78;1.55;;;;;;;27.31;66.57;94368.97;4946595;28;20042;-91
2022/09/13 10:51:06;;;;;;;3.22;1.33;;;;;;;27.54;64.65;94368.75;4961947;28;20074;-92
2022/09/13 10:53:42;;;;;;;5.43;1.27;;;;;;;27.05;68.74;94362.66;4962948;28;20038;-90
2022/09/13 10:56:22;;;;;;;4.47;1.30;;;;;;;27.60;66.10;94361.09;4962813;28;20030;-92
2022/09/13 10:58:48;;;;;;;3.67;1.20;;;;;;;27.64;65.10;94353.78;4946224;28;20463;-92
2022/09/13 11:01:46;;;;;;;3.65;1.25;;;;;;;27.36;73.42;94347.88;4962265;28;20037;-93
2022/09/13 11:04:46;;;;;;;5.75;1.52;;;;;;;27.41;68.42;94338.69;4962213;28;20018;-90
2022/09/13 11:07:17;;;;;;;5.97;1.50;;;;;;;27.34;68.98;94330.56;4979294;28;20023;-91
2022/09/13 11:09:56;;;;;;;2.72;1.27;;;;;;;27.67;68.12;94328.81;4962054;28;20090;-93
2022/09/13 11:12:43;;;;;;;3.92;1.65;;;;;;;27.89;62.33;94331.59;4979078;28;20042;-94
2022/09/13 11:15:22;;;;;;;3.33;1.00;;;;;;;28.14;63.27;94333.59;4979761;28;20027;-93
2022/09/13 11:18:05;;;;;;;4.22;1.40;;;;;;;27.49;60.16;94334.84;4961124;28;20034;-93
2022/09/13 11:20:38;;;;;;;3.30;1.10;;;;;;;27.70;59.37;94338.84;4978981;28;20027;-94
2022/09/13 11:23:35;;;;;;;5.00;1.40;;;;;;;27.93;64.44;94340.44;4979094;28;20090;-93
2022/09/13 11:26:05;;;;;;;3.75;1.33;;;;;;;28.18;60.96;94343.22;4961728;28;20029;-93
2022/09/13 11:28:52;;;;;;;4.15;1.40;;;;;;;28.28;62.92;94346.31;4961991;28;20173;-92
2022/09/13 11:31:43;;;;;;;4.43;1.30;;;;;;;28.25;59.48;94355.94;4978832;28;20030;-93
2022/09/13 11:34:35;;;;;;;6.05;1.40;;;;;;;28.08;61.77;94343.94;4961865;28;20031;-93
2022/09/13 11:37:22;;;;;;;5.40;1.10;;;;;;;28.17;63.75;94349.75;4978752;28;20027;-91
2022/09/13 11:40:22;;;;;;;4.78;1.20;;;;;;;28.48;56.18;94341.34;4961469;28;20094;-93
2022/09/13 11:42:58;;;;;;;2.90;1.40;;;;;;;28.00;54.45;94337.00;4950228;28;20448;-93
2022/09/13 11:45:25;;;;;;;3.53;1.27;;;;;;;28.57;60.47;94335.56;4961391;28;20027;-93
2022/09/13 11:48:12;;;;;;;3.15;1.23;;;;;;;28.39;57.46;94339.03;4961529;28;20429;-90
2022/09/13 11:51:18;;;;;;;8.10;1.50;;;;;;;27.69;59.08;94336.50;4978389;28;20082;-93
2022/09/13 11:53:44;;;;;;;5.15;1.35;;;;;;;28.26;57.96;94335.91;4928705;28;20047;-89